PWSweather.com
Personal Weather Stations
Station Observations
MIXERSVP2
Woodland, CA 95695

Woodland, CA 95695

Lat: 38.659, Lon: -121.775

Elevation: 45

Station Type: Davis Vantage Pro 2

High Low Average
Temperature 56.2°F13.4°C 36.5°F2.5°C 46.2°F7.9°C
Dew Point 36.9°F2.7°C 27.7°F-2.4°C 32.5°F0.3°C
Winds 22.0 mph 35.4 kmh Calm Calm 6.0 mph WSW9.7 kmh WSW
Wind Gusts 32.0 mph51.5 kmh -- 14.0 mph22.5 kmh
Humidity 84% 37% 61%
Pressure 29.96 in1014.6 mb 29.70 in1005.8 mb -
Precipitation 0.00 in0.0 mm - -
Hour Temp Dew Point Humidity Winds Wind Gusts Pressure Precip Precip Rate Daily Precip Total
12:00 AM 40.9°F4.9°C 35.5°F1.9°C 81% Calm Calm -- 29.71 in1006.1 mb 0.00 in0.0 mm 0.00 in0.0 mm 0.00 in0.0 mm
12:05 AM 40.8°F4.9°C 35.4°F1.9°C 81% Calm Calm 1.0 mph1.6 kmh 29.71 in1006.1 mb 0.00 in0.0 mm 0.00 in0.0 mm 0.00 in0.0 mm
12:10 AM 41.1°F5.1°C 36.0°F2.2°C 82% 1.0 mph SE1.6 kmh SE 2.0 mph3.2 kmh 29.71 in1006.1 mb 0.00 in0.0 mm 0.00 in0.0 mm 0.00 in0.0 mm
12:15 AM 41.3°F5.2°C 36.2°F2.3°C 82% Calm Calm 2.0 mph3.2 kmh 29.71 in1006.1 mb 0.00 in0.0 mm 0.00 in0.0 mm 0.00 in0.0 mm
12:20 AM 41.2°F5.1°C 35.8°F2.1°C 81% 3.0 mph NE4.8 kmh NE 1.0 mph1.6 kmh 29.72 in1006.4 mb 0.00 in0.0 mm 0.00 in0.0 mm 0.00 in0.0 mm
12:25 AM 41.6°F5.3°C 36.2°F2.3°C 81% 8.0 mph NE12.9 kmh NE 7.0 mph11.3 kmh 29.72 in1006.4 mb 0.00 in0.0 mm 0.00 in0.0 mm 0.00 in0.0 mm
12:30 AM 42.5°F5.8°C 37.4°F3.0°C 82% 6.0 mph ESE9.7 kmh ESE 11.0 mph17.7 kmh 29.72 in1006.4 mb 0.00 in0.0 mm 0.00 in0.0 mm 0.00 in0.0 mm
12:35 AM 42.9°F6.1°C 37.5°F3.1°C 81% 3.0 mph E4.8 kmh E 11.0 mph17.7 kmh 29.72 in1006.4 mb 0.00 in0.0 mm 0.00 in0.0 mm 0.00 in0.0 mm
12:40 AM 42.7°F5.9°C 37.3°F2.9°C 81% 2.0 mph ESE3.2 kmh ESE 7.0 mph11.3 kmh 29.71 in1006.1 mb 0.00 in0.0 mm 0.00 in0.0 mm 0.00 in0.0 mm
12:45 AM 42.9°F6.1°C 37.5°F3.1°C 81% 1.0 mph ESE1.6 kmh ESE 6.0 mph9.7 kmh 29.71 in1006.1 mb 0.00 in0.0 mm 0.00 in0.0 mm 0.00 in0.0 mm
12:50 AM 42.8°F6.0°C 37.1°F2.8°C 80% Calm Calm 6.0 mph9.7 kmh 29.71 in1006.1 mb 0.00 in0.0 mm 0.00 in0.0 mm 0.00 in0.0 mm
12:55 AM 42.6°F5.9°C 36.9°F2.7°C 80% Calm Calm 4.0 mph6.4 kmh 29.72 in1006.4 mb 0.00 in0.0 mm 0.00 in0.0 mm 0.00 in0.0 mm
01:01 AM 42.3°F5.7°C 36.9°F2.7°C 81% 1.0 mph ENE1.6 kmh ENE 3.0 mph4.8 kmh 29.72 in1006.4 mb 0.00 in0.0 mm 0.00 in0.0 mm 0.00 in0.0 mm
01:05 AM 42.2°F5.7°C 36.8°F2.7°C 81% 2.0 mph ENE3.2 kmh ENE 3.0 mph4.8 kmh 29.72 in1006.4 mb 0.00 in0.0 mm 0.00 in0.0 mm 0.00 in0.0 mm
01:10 AM 42.1°F5.6°C 36.7°F2.6°C 81% Calm Calm 3.0 mph4.8 kmh 29.72 in1006.4 mb 0.00 in0.0 mm 0.00 in0.0 mm 0.00 in0.0 mm
01:15 AM 42.0°F5.6°C 36.6°F2.6°C 81% Calm Calm 3.0 mph4.8 kmh 29.72 in1006.4 mb 0.00 in0.0 mm 0.00 in0.0 mm 0.00 in0.0 mm
01:20 AM 41.7°F5.4°C 36.3°F2.4°C 81% 1.0 mph ENE1.6 kmh ENE 3.0 mph4.8 kmh 29.72 in1006.4 mb 0.00 in0.0 mm 0.00 in0.0 mm 0.00 in0.0 mm
01:25 AM 41.5°F5.3°C 36.1°F2.3°C 81% 2.0 mph ENE3.2 kmh ENE 2.0 mph3.2 kmh 29.72 in1006.4 mb 0.00 in0.0 mm 0.00 in0.0 mm 0.00 in0.0 mm
01:30 AM 41.2°F5.1°C 36.1°F2.3°C 82% Calm Calm 2.0 mph3.2 kmh 29.72 in1006.4 mb 0.00 in0.0 mm 0.00 in0.0 mm 0.00 in0.0 mm
01:35 AM 41.0°F5.0°C 35.9°F2.2°C 82% 1.0 mph ENE1.6 kmh ENE 2.0 mph3.2 kmh 29.72 in1006.4 mb 0.00 in0.0 mm 0.00 in0.0 mm 0.00 in0.0 mm
01:40 AM 41.0°F5.0°C 35.9°F2.2°C 82% 2.0 mph ENE3.2 kmh ENE 3.0 mph4.8 kmh 29.72 in1006.4 mb 0.00 in0.0 mm 0.00 in0.0 mm 0.00 in0.0 mm
01:45 AM 40.8°F4.9°C 35.7°F2.1°C 82% 1.0 mph ENE1.6 kmh ENE 3.0 mph4.8 kmh 29.72 in1006.4 mb 0.00 in0.0 mm 0.00 in0.0 mm 0.00 in0.0 mm
01:50 AM 40.8°F4.9°C 35.7°F2.1°C 82% Calm Calm 2.0 mph3.2 kmh 29.71 in1006.1 mb 0.00 in0.0 mm 0.00 in0.0 mm 0.00 in0.0 mm
01:55 AM 40.7°F4.8°C 35.6°F2.0°C 82% Calm Calm 2.0 mph3.2 kmh 29.71 in1006.1 mb 0.00 in0.0 mm 0.00 in0.0 mm 0.00 in0.0 mm
02:00 AM 40.5°F4.7°C 35.4°F1.9°C 82% Calm Calm 1.0 mph1.6 kmh 29.72 in1006.4 mb 0.00 in0.0 mm 0.00 in0.0 mm 0.00 in0.0 mm
02:05 AM 40.2°F4.6°C 35.5°F1.9°C 83% Calm Calm -- 29.72 in1006.4 mb 0.00 in0.0 mm 0.00 in0.0 mm 0.00 in0.0 mm
02:10 AM 40.0°F4.4°C 35.3°F1.8°C 83% Calm Calm -- 29.72 in1006.4 mb 0.00 in0.0 mm 0.00 in0.0 mm 0.00 in0.0 mm
02:15 AM 39.8°F4.3°C 35.1°F1.7°C 83% Calm Calm -- 29.72 in1006.4 mb 0.00 in0.0 mm 0.00 in0.0 mm 0.00 in0.0 mm
02:20 AM 39.6°F4.2°C 34.9°F1.6°C 83% Calm Calm -- 29.72 in1006.4 mb 0.00 in0.0 mm 0.00 in0.0 mm 0.00 in0.0 mm
02:25 AM 39.4°F4.1°C 34.7°F1.5°C 83% Calm Calm -- 29.72 in1006.4 mb 0.00 in0.0 mm 0.00 in0.0 mm 0.00 in0.0 mm
02:30 AM 39.5°F4.2°C 34.8°F1.6°C 83% Calm Calm -- 29.72 in1006.4 mb 0.00 in0.0 mm 0.00 in0.0 mm 0.00 in0.0 mm
02:35 AM 39.6°F4.2°C 34.9°F1.6°C 83% 1.0 mph ENE1.6 kmh ENE -- 29.72 in1006.4 mb 0.00 in0.0 mm 0.00 in0.0 mm 0.00 in0.0 mm
02:40 AM 40.0°F4.4°C 35.3°F1.8°C 83% Calm Calm 2.0 mph3.2 kmh 29.72 in1006.4 mb 0.00 in0.0 mm 0.00 in0.0 mm 0.00 in0.0 mm
02:45 AM 40.1°F4.5°C 35.4°F1.9°C 83% Calm Calm 2.0 mph3.2 kmh 29.72 in1006.4 mb 0.00 in0.0 mm 0.00 in0.0 mm 0.00 in0.0 mm
02:50 AM 40.2°F4.6°C 35.5°F1.9°C 83% Calm Calm 1.0 mph1.6 kmh 29.72 in1006.4 mb 0.00 in0.0 mm 0.00 in0.0 mm 0.00 in0.0 mm
02:55 AM 40.3°F4.6°C 35.6°F2.0°C 83% Calm Calm 1.0 mph1.6 kmh 29.72 in1006.4 mb 0.00 in0.0 mm 0.00 in0.0 mm 0.00 in0.0 mm
03:00 AM 40.3°F4.6°C 35.6°F2.0°C 83% Calm Calm -- 29.72 in1006.4 mb 0.00 in0.0 mm 0.00 in0.0 mm 0.00 in0.0 mm
03:05 AM 40.1°F4.5°C 35.4°F1.9°C 83% Calm Calm -- 29.72 in1006.4 mb 0.00 in0.0 mm 0.00 in0.0 mm 0.00 in0.0 mm
03:10 AM 40.0°F4.4°C 35.3°F1.8°C 83% Calm Calm -- 29.72 in1006.4 mb 0.00 in0.0 mm 0.00 in0.0 mm 0.00 in0.0 mm
03:15 AM 39.7°F4.3°C 35.3°F1.8°C 84% Calm Calm -- 29.72 in1006.4 mb 0.00 in0.0 mm 0.00 in0.0 mm 0.00 in0.0 mm
03:20 AM 39.4°F4.1°C 34.7°F1.5°C 83% Calm Calm 1.0 mph1.6 kmh 29.72 in1006.4 mb 0.00 in0.0 mm 0.00 in0.0 mm 0.00 in0.0 mm
03:25 AM 39.2°F4.0°C 34.8°F1.6°C 84% Calm Calm 1.0 mph1.6 kmh 29.72 in1006.4 mb 0.00 in0.0 mm 0.00 in0.0 mm 0.00 in0.0 mm
03:30 AM 38.9°F3.8°C 34.2°F1.2°C 83% Calm Calm 1.0 mph1.6 kmh 29.72 in1006.4 mb 0.00 in0.0 mm 0.00 in0.0 mm 0.00 in0.0 mm
03:35 AM 38.8°F3.8°C 34.4°F1.3°C 84% Calm Calm -- 29.72 in1006.4 mb 0.00 in0.0 mm 0.00 in0.0 mm 0.00 in0.0 mm
03:40 AM 38.7°F3.7°C 34.3°F1.3°C 84% Calm Calm 1.0 mph1.6 kmh 29.72 in1006.4 mb 0.00 in0.0 mm 0.00 in0.0 mm 0.00 in0.0 mm
03:45 AM 38.6°F3.7°C 34.2°F1.2°C 84% Calm Calm 1.0 mph1.6 kmh 29.71 in1006.1 mb 0.00 in0.0 mm 0.00 in0.0 mm 0.00 in0.0 mm
03:50 AM 38.5°F3.6°C 34.1°F1.2°C 84% Calm Calm -- 29.71 in1006.1 mb 0.00 in0.0 mm 0.00 in0.0 mm 0.00 in0.0 mm
03:55 AM 38.4°F3.6°C 34.0°F1.1°C 84% Calm Calm -- 29.71 in1006.1 mb 0.00 in0.0 mm 0.00 in0.0 mm 0.00 in0.0 mm
04:00 AM 38.2°F3.4°C 33.8°F1.0°C 84% Calm Calm 1.0 mph1.6 kmh 29.71 in1006.1 mb 0.00 in0.0 mm 0.00 in0.0 mm 0.00 in0.0 mm
04:05 AM 38.0°F3.3°C 33.6°F0.9°C 84% Calm Calm 1.0 mph1.6 kmh 29.71 in1006.1 mb 0.00 in0.0 mm 0.00 in0.0 mm 0.00 in0.0 mm
04:10 AM 38.0°F3.3°C 33.6°F0.9°C 84% Calm Calm 1.0 mph1.6 kmh 29.71 in1006.1 mb 0.00 in0.0 mm 0.00 in0.0 mm 0.00 in0.0 mm
04:15 AM 37.7°F3.2°C 33.3°F0.7°C 84% Calm Calm 1.0 mph1.6 kmh 29.71 in1006.1 mb 0.00 in0.0 mm 0.00 in0.0 mm 0.00 in0.0 mm
04:20 AM 37.7°F3.2°C 33.3°F0.7°C 84% Calm Calm 1.0 mph1.6 kmh 29.71 in1006.1 mb 0.00 in0.0 mm 0.00 in0.0 mm 0.00 in0.0 mm
04:25 AM 37.7°F3.2°C 33.0°F0.6°C 83% Calm Calm -- 29.71 in1006.1 mb 0.00 in0.0 mm 0.00 in0.0 mm 0.00 in0.0 mm
04:30 AM 37.7°F3.2°C 33.0°F0.6°C 83% Calm Calm -- 29.71 in1006.1 mb 0.00 in0.0 mm 0.00 in0.0 mm 0.00 in0.0 mm
04:35 AM 37.6°F3.1°C 32.9°F0.5°C 83% Calm Calm -- 29.70 in1005.8 mb 0.00 in0.0 mm 0.00 in0.0 mm 0.00 in0.0 mm
04:40 AM 37.5°F3.1°C 32.8°F0.4°C 83% Calm Calm -- 29.70 in1005.8 mb 0.00 in0.0 mm 0.00 in0.0 mm 0.00 in0.0 mm
04:45 AM 37.5°F3.1°C 32.8°F0.4°C 83% Calm Calm -- 29.70 in1005.8 mb 0.00 in0.0 mm 0.00 in0.0 mm 0.00 in0.0 mm
04:50 AM 37.5°F3.1°C 32.8°F0.4°C 83% Calm Calm -- 29.70 in1005.8 mb 0.00 in0.0 mm 0.00 in0.0 mm 0.00 in0.0 mm
04:55 AM 37.5°F3.1°C 32.8°F0.4°C 83% Calm Calm 2.0 mph3.2 kmh 29.70 in1005.8 mb 0.00 in0.0 mm 0.00 in0.0 mm 0.00 in0.0 mm
05:00 AM 37.4°F3.0°C 32.7°F0.4°C 83% Calm Calm 2.0 mph3.2 kmh 29.70 in1005.8 mb 0.00 in0.0 mm 0.00 in0.0 mm 0.00 in0.0 mm
05:05 AM 37.4°F3.0°C 32.7°F0.4°C 83% Calm Calm 2.0 mph3.2 kmh 29.70 in1005.8 mb 0.00 in0.0 mm 0.00 in0.0 mm 0.00 in0.0 mm
05:10 AM 37.4°F3.0°C 32.7°F0.4°C 83% 1.0 mph W1.6 kmh W 3.0 mph4.8 kmh 29.70 in1005.8 mb 0.00 in0.0 mm 0.00 in0.0 mm 0.00 in0.0 mm
05:15 AM 37.5°F3.1°C 32.8°F0.4°C 83% Calm Calm 3.0 mph4.8 kmh 29.70 in1005.8 mb 0.00 in0.0 mm 0.00 in0.0 mm 0.00 in0.0 mm
05:20 AM 37.2°F2.9°C 32.5°F0.3°C 83% Calm Calm 2.0 mph3.2 kmh 29.70 in1005.8 mb 0.00 in0.0 mm 0.00 in0.0 mm 0.00 in0.0 mm
05:25 AM 37.1°F2.8°C 32.4°F0.2°C 83% Calm Calm 2.0 mph3.2 kmh 29.70 in1005.8 mb 0.00 in0.0 mm 0.00 in0.0 mm 0.00 in0.0 mm
05:30 AM 37.0°F2.8°C 32.3°F0.2°C 83% Calm Calm 3.0 mph4.8 kmh 29.70 in1005.8 mb 0.00 in0.0 mm 0.00 in0.0 mm 0.00 in0.0 mm
05:35 AM 37.1°F2.8°C 32.4°F0.2°C 83% 1.0 mph W1.6 kmh W 3.0 mph4.8 kmh 29.70 in1005.8 mb 0.00 in0.0 mm 0.00 in0.0 mm 0.00 in0.0 mm
05:40 AM 37.1°F2.8°C 32.4°F0.2°C 83% 1.0 mph WNW1.6 kmh WNW 3.0 mph4.8 kmh 29.70 in1005.8 mb 0.00 in0.0 mm 0.00 in0.0 mm 0.00 in0.0 mm
05:45 AM 37.1°F2.8°C 32.4°F0.2°C 83% Calm Calm 3.0 mph4.8 kmh 29.70 in1005.8 mb 0.00 in0.0 mm 0.00 in0.0 mm 0.00 in0.0 mm
05:50 AM 36.9°F2.7°C 32.2°F0.1°C 83% Calm Calm 2.0 mph3.2 kmh 29.70 in1005.8 mb 0.00 in0.0 mm 0.00 in0.0 mm 0.00 in0.0 mm
05:55 AM 36.6°F2.6°C 31.9°F-0.1°C 83% Calm Calm 2.0 mph3.2 kmh 29.70 in1005.8 mb 0.00 in0.0 mm 0.00 in0.0 mm 0.00 in0.0 mm
06:00 AM 36.5°F2.5°C 31.8°F-0.1°C 83% 2.0 mph N3.2 kmh N 3.0 mph4.8 kmh 29.71 in1006.1 mb 0.00 in0.0 mm 0.00 in0.0 mm 0.00 in0.0 mm
06:05 AM 36.5°F2.5°C 31.8°F-0.1°C 83% 1.0 mph NW1.6 kmh NW 4.0 mph6.4 kmh 29.71 in1006.1 mb 0.00 in0.0 mm 0.00 in0.0 mm 0.00 in0.0 mm
06:10 AM 36.6°F2.6°C 31.9°F-0.1°C 83% Calm Calm 4.0 mph6.4 kmh 29.71 in1006.1 mb 0.00 in0.0 mm 0.00 in0.0 mm 0.00 in0.0 mm
06:15 AM 36.6°F2.6°C 31.9°F-0.1°C 83% Calm Calm 3.0 mph4.8 kmh 29.71 in1006.1 mb 0.00 in0.0 mm 0.00 in0.0 mm 0.00 in0.0 mm
06:20 AM 36.5°F2.5°C 32.1°F0.1°C 84% Calm Calm 1.0 mph1.6 kmh 29.71 in1006.1 mb 0.00 in0.0 mm 0.00 in0.0 mm 0.00 in0.0 mm
06:25 AM 36.5°F2.5°C 32.1°F0.1°C 84% 1.0 mph NW1.6 kmh NW 2.0 mph3.2 kmh 29.71 in1006.1 mb 0.00 in0.0 mm 0.00 in0.0 mm 0.00 in0.0 mm
06:30 AM 36.6°F2.6°C 32.2°F0.1°C 84% 2.0 mph NW3.2 kmh NW 3.0 mph4.8 kmh 29.71 in1006.1 mb 0.00 in0.0 mm 0.00 in0.0 mm 0.00 in0.0 mm
06:35 AM 36.9°F2.7°C 32.5°F0.3°C 84% 3.0 mph WSW4.8 kmh WSW 4.0 mph6.4 kmh 29.71 in1006.1 mb 0.00 in0.0 mm 0.00 in0.0 mm 0.00 in0.0 mm
06:40 AM 37.2°F2.9°C 32.8°F0.4°C 84% Calm Calm 6.0 mph9.7 kmh 29.71 in1006.1 mb 0.00 in0.0 mm 0.00 in0.0 mm 0.00 in0.0 mm
06:45 AM 37.4°F3.0°C 33.0°F0.6°C 84% 4.0 mph NNW6.4 kmh NNW 6.0 mph9.7 kmh 29.71 in1006.1 mb 0.00 in0.0 mm 0.00 in0.0 mm 0.00 in0.0 mm
06:50 AM 37.8°F3.2°C 33.4°F0.8°C 84% 2.0 mph NNW3.2 kmh NNW 12.0 mph19.3 kmh 29.71 in1006.1 mb 0.00 in0.0 mm 0.00 in0.0 mm 0.00 in0.0 mm
06:55 AM 38.0°F3.3°C 33.6°F0.9°C 84% 2.0 mph NW3.2 kmh NW 12.0 mph19.3 kmh 29.71 in1006.1 mb 0.00 in0.0 mm 0.00 in0.0 mm 0.00 in0.0 mm
07:00 AM 38.0°F3.3°C 33.6°F0.9°C 84% 3.0 mph NW4.8 kmh NW 8.0 mph12.9 kmh 29.71 in1006.1 mb 0.00 in0.0 mm 0.00 in0.0 mm 0.00 in0.0 mm
07:05 AM 38.0°F3.3°C 33.3°F0.7°C 83% 4.0 mph NW6.4 kmh NW 8.0 mph12.9 kmh 29.71 in1006.1 mb 0.00 in0.0 mm 0.00 in0.0 mm 0.00 in0.0 mm
07:10 AM 37.9°F3.3°C 33.2°F0.7°C 83% 3.0 mph NW4.8 kmh NW 7.0 mph11.3 kmh 29.71 in1006.1 mb 0.00 in0.0 mm 0.00 in0.0 mm 0.00 in0.0 mm
07:15 AM 37.9°F3.3°C 33.2°F0.7°C 83% 4.0 mph NW6.4 kmh NW 8.0 mph12.9 kmh 29.71 in1006.1 mb 0.00 in0.0 mm 0.00 in0.0 mm 0.00 in0.0 mm
07:20 AM 38.0°F3.3°C 33.3°F0.7°C 83% 2.0 mph NW3.2 kmh NW 8.0 mph12.9 kmh 29.71 in1006.1 mb 0.00 in0.0 mm 0.00 in0.0 mm 0.00 in0.0 mm
07:25 AM 38.0°F3.3°C 33.3°F0.7°C 83% 2.0 mph NNW3.2 kmh NNW 9.0 mph14.5 kmh 29.71 in1006.1 mb 0.00 in0.0 mm 0.00 in0.0 mm 0.00 in0.0 mm
07:30 AM 38.1°F3.4°C 33.4°F0.8°C 83% 1.0 mph NW1.6 kmh NW 9.0 mph14.5 kmh 29.71 in1006.1 mb 0.00 in0.0 mm 0.00 in0.0 mm 0.00 in0.0 mm
07:35 AM 38.2°F3.4°C 33.5°F0.8°C 83% 4.0 mph NW6.4 kmh NW 8.0 mph12.9 kmh 29.71 in1006.1 mb 0.00 in0.0 mm 0.00 in0.0 mm 0.00 in0.0 mm
07:40 AM 38.4°F3.6°C 33.4°F0.8°C 82% 5.0 mph WNW8.0 kmh WNW 10.0 mph16.1 kmh 29.71 in1006.1 mb 0.00 in0.0 mm 0.00 in0.0 mm 0.00 in0.0 mm
07:45 AM 38.6°F3.7°C 33.6°F0.9°C 82% Calm Calm 10.0 mph16.1 kmh 29.71 in1006.1 mb 0.00 in0.0 mm 0.00 in0.0 mm 0.00 in0.0 mm
07:50 AM 38.8°F3.8°C 33.8°F1.0°C 82% 5.0 mph NW8.0 kmh NW 10.0 mph16.1 kmh 29.71 in1006.1 mb 0.00 in0.0 mm 0.00 in0.0 mm 0.00 in0.0 mm
07:55 AM 38.9°F3.8°C 33.6°F0.9°C 81% 10.0 mph NW16.1 kmh NW 11.0 mph17.7 kmh 29.71 in1006.1 mb 0.00 in0.0 mm 0.00 in0.0 mm 0.00 in0.0 mm
08:00 AM 39.0°F3.9°C 33.7°F0.9°C 81% 5.0 mph NW8.0 kmh NW 12.0 mph19.3 kmh 29.71 in1006.1 mb 0.00 in0.0 mm 0.00 in0.0 mm 0.00 in0.0 mm
08:05 AM 39.1°F3.9°C 33.5°F0.8°C 80% 7.0 mph N11.3 kmh N 12.0 mph19.3 kmh 29.71 in1006.1 mb 0.00 in0.0 mm 0.00 in0.0 mm 0.00 in0.0 mm
08:10 AM 39.2°F4.0°C 33.6°F0.9°C 80% 7.0 mph NW11.3 kmh NW 13.0 mph20.9 kmh 29.71 in1006.1 mb 0.00 in0.0 mm 0.00 in0.0 mm 0.00 in0.0 mm
08:15 AM 39.4°F4.1°C 33.4°F0.8°C 79% 3.0 mph NW4.8 kmh NW 15.0 mph24.1 kmh 29.71 in1006.1 mb 0.00 in0.0 mm 0.00 in0.0 mm 0.00 in0.0 mm
08:20 AM 39.6°F4.2°C 33.6°F0.9°C 79% 10.0 mph NW16.1 kmh NW 15.0 mph24.1 kmh 29.71 in1006.1 mb 0.00 in0.0 mm 0.00 in0.0 mm 0.00 in0.0 mm
08:25 AM 39.7°F4.3°C 33.4°F0.8°C 78% 7.0 mph N11.3 kmh N 15.0 mph24.1 kmh 29.71 in1006.1 mb 0.00 in0.0 mm 0.00 in0.0 mm 0.00 in0.0 mm
08:30 AM 40.0°F4.4°C 33.7°F0.9°C 78% 7.0 mph WNW11.3 kmh WNW 14.0 mph22.5 kmh 29.72 in1006.4 mb 0.00 in0.0 mm 0.00 in0.0 mm 0.00 in0.0 mm
08:35 AM 40.1°F4.5°C 33.5°F0.8°C 77% 12.0 mph N19.3 kmh N 14.0 mph22.5 kmh 29.72 in1006.4 mb 0.00 in0.0 mm 0.00 in0.0 mm 0.00 in0.0 mm
08:40 AM 40.2°F4.6°C 33.6°F0.9°C 77% 7.0 mph NNW11.3 kmh NNW 17.0 mph27.4 kmh 29.72 in1006.4 mb 0.00 in0.0 mm 0.00 in0.0 mm 0.00 in0.0 mm
08:45 AM 40.4°F4.7°C 33.8°F1.0°C 77% 6.0 mph N9.7 kmh N 17.0 mph27.4 kmh 29.72 in1006.4 mb 0.00 in0.0 mm 0.00 in0.0 mm 0.00 in0.0 mm
08:50 AM 40.7°F4.8°C 33.7°F0.9°C 76% 9.0 mph N14.5 kmh N 20.0 mph32.2 kmh 29.72 in1006.4 mb 0.00 in0.0 mm 0.00 in0.0 mm 0.00 in0.0 mm
08:55 AM 41.1°F5.1°C 33.8°F1.0°C 75% 7.0 mph NNE11.3 kmh NNE 20.0 mph32.2 kmh 29.72 in1006.4 mb 0.00 in0.0 mm 0.00 in0.0 mm 0.00 in0.0 mm
09:00 AM 41.5°F5.3°C 34.2°F1.2°C 75% 8.0 mph N12.9 kmh N 17.0 mph27.4 kmh 29.73 in1006.8 mb 0.00 in0.0 mm 0.00 in0.0 mm 0.00 in0.0 mm
09:05 AM 41.9°F5.5°C 34.2°F1.2°C 74% 7.0 mph WNW11.3 kmh WNW 20.0 mph32.2 kmh 29.73 in1006.8 mb 0.00 in0.0 mm 0.00 in0.0 mm 0.00 in0.0 mm
09:10 AM 42.2°F5.7°C 34.2°F1.2°C 73% 4.0 mph NNE6.4 kmh NNE 20.0 mph32.2 kmh 29.73 in1006.8 mb 0.00 in0.0 mm 0.00 in0.0 mm 0.00 in0.0 mm
09:15 AM 42.6°F5.9°C 34.2°F1.2°C 72% 4.0 mph W6.4 kmh W 17.0 mph27.4 kmh 29.73 in1006.8 mb 0.00 in0.0 mm 0.00 in0.0 mm 0.00 in0.0 mm
09:20 AM 43.0°F6.1°C 34.3°F1.3°C 71% 10.0 mph N16.1 kmh N 21.0 mph33.8 kmh 29.73 in1006.8 mb 0.00 in0.0 mm 0.00 in0.0 mm 0.00 in0.0 mm
09:25 AM 43.9°F6.6°C 34.8°F1.6°C 70% 12.0 mph NNW19.3 kmh NNW 21.0 mph33.8 kmh 29.73 in1006.8 mb 0.00 in0.0 mm 0.00 in0.0 mm 0.00 in0.0 mm
09:30 AM 44.5°F6.9°C 34.6°F1.4°C 68% 20.0 mph WNW32.2 kmh WNW 21.0 mph33.8 kmh 29.73 in1006.8 mb 0.00 in0.0 mm 0.00 in0.0 mm 0.00 in0.0 mm
09:35 AM 44.6°F7.0°C 34.3°F1.3°C 67% 11.0 mph N17.7 kmh N 21.0 mph33.8 kmh 29.73 in1006.8 mb 0.00 in0.0 mm 0.00 in0.0 mm 0.00 in0.0 mm
09:40 AM 44.7°F7.1°C 34.0°F1.1°C 66% 12.0 mph NNW19.3 kmh NNW 21.0 mph33.8 kmh 29.73 in1006.8 mb 0.00 in0.0 mm 0.00 in0.0 mm 0.00 in0.0 mm
09:45 AM 44.9°F7.2°C 34.2°F1.2°C 66% 10.0 mph NW16.1 kmh NW 21.0 mph33.8 kmh 29.74 in1007.1 mb 0.00 in0.0 mm 0.00 in0.0 mm 0.00 in0.0 mm
09:50 AM 44.8°F7.1°C 33.8°F1.0°C 65% 13.0 mph NNW20.9 kmh NNW 24.0 mph38.6 kmh 29.73 in1006.8 mb 0.00 in0.0 mm 0.00 in0.0 mm 0.00 in0.0 mm
09:55 AM 44.8°F7.1°C 34.1°F1.2°C 66% 11.0 mph W17.7 kmh W 24.0 mph38.6 kmh 29.73 in1006.8 mb 0.00 in0.0 mm 0.00 in0.0 mm 0.00 in0.0 mm
10:00 AM 45.0°F7.2°C 34.3°F1.3°C 66% 9.0 mph NW14.5 kmh NW 17.0 mph27.4 kmh 29.74 in1007.1 mb 0.00 in0.0 mm 0.00 in0.0 mm 0.00 in0.0 mm
10:05 AM 45.2°F7.3°C 34.5°F1.4°C 66% 8.0 mph N12.9 kmh N 25.0 mph40.2 kmh 29.74 in1007.1 mb 0.00 in0.0 mm 0.00 in0.0 mm 0.00 in0.0 mm
10:10 AM 45.6°F7.6°C 34.5°F1.4°C 65% 10.0 mph NW16.1 kmh NW 25.0 mph40.2 kmh 29.73 in1006.8 mb 0.00 in0.0 mm 0.00 in0.0 mm 0.00 in0.0 mm
10:15 AM 46.3°F7.9°C 34.4°F1.3°C 63% 8.0 mph NW12.9 kmh NW 18.0 mph29.0 kmh 29.74 in1007.1 mb 0.00 in0.0 mm 0.00 in0.0 mm 0.00 in0.0 mm
10:20 AM 46.7°F8.2°C 34.4°F1.3°C 62% 10.0 mph N16.1 kmh N 23.0 mph37.0 kmh 29.74 in1007.1 mb 0.00 in0.0 mm 0.00 in0.0 mm 0.00 in0.0 mm
10:25 AM 47.1°F8.4°C 34.4°F1.3°C 61% 11.0 mph NW17.7 kmh NW 23.0 mph37.0 kmh 29.74 in1007.1 mb 0.00 in0.0 mm 0.00 in0.0 mm 0.00 in0.0 mm
10:30 AM 47.5°F8.6°C 34.3°F1.3°C 60% 7.0 mph NW11.3 kmh NW 22.0 mph35.4 kmh 29.74 in1007.1 mb 0.00 in0.0 mm 0.00 in0.0 mm 0.00 in0.0 mm
10:35 AM 47.7°F8.7°C 34.1°F1.2°C 59% 11.0 mph NW17.7 kmh NW 22.0 mph35.4 kmh 29.74 in1007.1 mb 0.00 in0.0 mm 0.00 in0.0 mm 0.00 in0.0 mm
10:40 AM 47.8°F8.8°C 33.7°F0.9°C 58% 14.0 mph NNW22.5 kmh NNW 24.0 mph38.6 kmh 29.74 in1007.1 mb 0.00 in0.0 mm 0.00 in0.0 mm 0.00 in0.0 mm
10:45 AM 47.9°F8.8°C 33.8°F1.0°C 58% 9.0 mph NW14.5 kmh NW 24.0 mph38.6 kmh 29.74 in1007.1 mb 0.00 in0.0 mm 0.00 in0.0 mm 0.00 in0.0 mm
10:50 AM 48.1°F8.9°C 34.0°F1.1°C 58% 7.0 mph NNW11.3 kmh NNW 23.0 mph37.0 kmh 29.74 in1007.1 mb 0.00 in0.0 mm 0.00 in0.0 mm 0.00 in0.0 mm
10:55 AM 48.5°F9.2°C 34.4°F1.3°C 58% 11.0 mph N17.7 kmh N 25.0 mph40.2 kmh 29.74 in1007.1 mb 0.00 in0.0 mm 0.00 in0.0 mm 0.00 in0.0 mm
11:00 AM 48.6°F9.2°C 34.1°F1.2°C 57% 7.0 mph NNE11.3 kmh NNE 25.0 mph40.2 kmh 29.74 in1007.1 mb 0.00 in0.0 mm 0.00 in0.0 mm 0.00 in0.0 mm
11:05 AM 48.5°F9.2°C 34.4°F1.3°C 58% 5.0 mph N8.0 kmh N 26.0 mph41.8 kmh 29.74 in1007.1 mb 0.00 in0.0 mm 0.00 in0.0 mm 0.00 in0.0 mm
11:10 AM 49.2°F9.6°C 34.6°F1.4°C 57% 10.0 mph NW16.1 kmh NW 26.0 mph41.8 kmh 29.74 in1007.1 mb 0.00 in0.0 mm 0.00 in0.0 mm 0.00 in0.0 mm
11:15 AM 49.7°F9.8°C 34.6°F1.4°C 56% 13.0 mph WNW20.9 kmh WNW 19.0 mph30.6 kmh 29.74 in1007.1 mb 0.00 in0.0 mm 0.00 in0.0 mm 0.00 in0.0 mm
11:20 AM 49.7°F9.8°C 34.6°F1.4°C 56% 7.0 mph N11.3 kmh N 23.0 mph37.0 kmh 29.74 in1007.1 mb 0.00 in0.0 mm 0.00 in0.0 mm 0.00 in0.0 mm
11:25 AM 49.8°F9.9°C 34.3°F1.3°C 55% 15.0 mph N24.1 kmh N 23.0 mph37.0 kmh 29.74 in1007.1 mb 0.00 in0.0 mm 0.00 in0.0 mm 0.00 in0.0 mm
11:30 AM 50.0°F10.0°C 34.5°F1.4°C 55% 11.0 mph N17.7 kmh N 22.0 mph35.4 kmh 29.74 in1007.1 mb 0.00 in0.0 mm 0.00 in0.0 mm 0.00 in0.0 mm
11:35 AM 50.7°F10.4°C 34.2°F1.2°C 53% 12.0 mph NNW19.3 kmh NNW 23.0 mph37.0 kmh 29.74 in1007.1 mb 0.00 in0.0 mm 0.00 in0.0 mm 0.00 in0.0 mm
11:40 AM 50.4°F10.2°C 33.9°F1.1°C 53% 9.0 mph N14.5 kmh N 23.0 mph37.0 kmh 29.74 in1007.1 mb 0.00 in0.0 mm 0.00 in0.0 mm 0.00 in0.0 mm
11:45 AM 51.2°F10.7°C 34.2°F1.2°C 52% 10.0 mph N16.1 kmh N 21.0 mph33.8 kmh 29.74 in1007.1 mb 0.00 in0.0 mm 0.00 in0.0 mm 0.00 in0.0 mm
11:50 AM 51.2°F10.7°C 34.2°F1.2°C 52% 11.0 mph N17.7 kmh N 21.0 mph33.8 kmh 29.74 in1007.1 mb 0.00 in0.0 mm 0.00 in0.0 mm 0.00 in0.0 mm
11:55 AM 51.4°F10.8°C 33.9°F1.1°C 51% 13.0 mph N20.9 kmh N 21.0 mph33.8 kmh 29.74 in1007.1 mb 0.00 in0.0 mm 0.00 in0.0 mm 0.00 in0.0 mm
12:00 PM 51.5°F10.8°C 34.5°F1.4°C 52% 8.0 mph NNE12.9 kmh NNE 27.0 mph43.5 kmh 29.74 in1007.1 mb 0.00 in0.0 mm 0.00 in0.0 mm 0.00 in0.0 mm
12:05 PM 52.2°F11.2°C 34.6°F1.4°C 51% 14.0 mph NNW22.5 kmh NNW 27.0 mph43.5 kmh 29.74 in1007.1 mb 0.00 in0.0 mm 0.00 in0.0 mm 0.00 in0.0 mm
12:10 PM 52.4°F11.3°C 33.8°F1.0°C 49% 19.0 mph N30.6 kmh N 21.0 mph33.8 kmh 29.74 in1007.1 mb 0.00 in0.0 mm 0.00 in0.0 mm 0.00 in0.0 mm
12:15 PM 52.1°F11.2°C 33.0°F0.6°C 48% 10.0 mph NNE16.1 kmh NNE 25.0 mph40.2 kmh 29.74 in1007.1 mb 0.00 in0.0 mm 0.00 in0.0 mm 0.00 in0.0 mm
12:20 PM 52.7°F11.5°C 34.1°F1.2°C 49% 9.0 mph N14.5 kmh N 25.0 mph40.2 kmh 29.73 in1006.8 mb 0.00 in0.0 mm 0.00 in0.0 mm 0.00 in0.0 mm
12:25 PM 53.3°F11.8°C 34.1°F1.2°C 48% 6.0 mph NNW9.7 kmh NNW 21.0 mph33.8 kmh 29.74 in1007.1 mb 0.00 in0.0 mm 0.00 in0.0 mm 0.00 in0.0 mm
12:30 PM 53.1°F11.7°C 33.4°F0.8°C 47% 8.0 mph NW12.9 kmh NW 24.0 mph38.6 kmh 29.74 in1007.1 mb 0.00 in0.0 mm 0.00 in0.0 mm 0.00 in0.0 mm
12:35 PM 53.0°F11.7°C 33.3°F0.7°C 47% 7.0 mph WNW11.3 kmh WNW 24.0 mph38.6 kmh 29.74 in1007.1 mb 0.00 in0.0 mm 0.00 in0.0 mm 0.00 in0.0 mm
12:40 PM 53.2°F11.8°C 33.5°F0.8°C 47% 7.0 mph N11.3 kmh N 23.0 mph37.0 kmh 29.74 in1007.1 mb 0.00 in0.0 mm 0.00 in0.0 mm 0.00 in0.0 mm
12:45 PM 53.5°F11.9°C 34.3°F1.3°C 48% 12.0 mph N19.3 kmh N 21.0 mph33.8 kmh 29.74 in1007.1 mb 0.00 in0.0 mm 0.00 in0.0 mm 0.00 in0.0 mm
12:50 PM 53.8°F12.1°C 34.0°F1.1°C 47% 9.0 mph N14.5 kmh N 24.0 mph38.6 kmh 29.74 in1007.1 mb 0.00 in0.0 mm 0.00 in0.0 mm 0.00 in0.0 mm
12:55 PM 53.7°F12.1°C 34.0°F1.1°C 47% 6.0 mph NW9.7 kmh NW 24.0 mph38.6 kmh 29.74 in1007.1 mb 0.00 in0.0 mm 0.00 in0.0 mm 0.00 in0.0 mm
01:00 PM 53.9°F12.2°C 33.6°F0.9°C 46% 11.0 mph N17.7 kmh N 20.0 mph32.2 kmh 29.74 in1007.1 mb 0.00 in0.0 mm 0.00 in0.0 mm 0.00 in0.0 mm
01:05 PM 53.9°F12.2°C 33.6°F0.9°C 46% 5.0 mph N8.0 kmh N 20.0 mph32.2 kmh 29.74 in1007.1 mb 0.00 in0.0 mm 0.00 in0.0 mm 0.00 in0.0 mm
01:10 PM 53.9°F12.2°C 33.6°F0.9°C 46% 9.0 mph N14.5 kmh N 24.0 mph38.6 kmh 29.74 in1007.1 mb 0.00 in0.0 mm 0.00 in0.0 mm 0.00 in0.0 mm
01:15 PM 54.0°F12.2°C 32.6°F0.3°C 44% 4.0 mph WNW6.4 kmh WNW 24.0 mph38.6 kmh 29.73 in1006.8 mb 0.00 in0.0 mm 0.00 in0.0 mm 0.00 in0.0 mm
01:20 PM 54.5°F12.5°C 33.6°F0.9°C 45% 9.0 mph NW14.5 kmh NW 26.0 mph41.8 kmh 29.73 in1006.8 mb 0.00 in0.0 mm 0.00 in0.0 mm 0.00 in0.0 mm
01:25 PM 54.5°F12.5°C 33.6°F0.9°C 45% 6.0 mph SW9.7 kmh SW 32.0 mph51.5 kmh 29.74 in1007.1 mb 0.00 in0.0 mm 0.00 in0.0 mm 0.00 in0.0 mm
01:30 PM 54.6°F12.6°C 34.2°F1.2°C 46% 4.0 mph N6.4 kmh N 32.0 mph51.5 kmh 29.74 in1007.1 mb 0.00 in0.0 mm 0.00 in0.0 mm 0.00 in0.0 mm
01:35 PM 54.4°F12.4°C 34.6°F1.4°C 47% 7.0 mph N11.3 kmh N 21.0 mph33.8 kmh 29.73 in1006.8 mb 0.00 in0.0 mm 0.00 in0.0 mm 0.00 in0.0 mm
01:40 PM 53.9°F12.2°C 33.6°F0.9°C 46% 8.0 mph NW12.9 kmh NW 22.0 mph35.4 kmh 29.74 in1007.1 mb 0.00 in0.0 mm 0.00 in0.0 mm 0.00 in0.0 mm
01:45 PM 53.8°F12.1°C 33.5°F0.8°C 46% 13.0 mph N20.9 kmh N 25.0 mph40.2 kmh 29.73 in1006.8 mb 0.00 in0.0 mm 0.00 in0.0 mm 0.00 in0.0 mm
01:50 PM 54.1°F12.3°C 34.3°F1.3°C 47% 9.0 mph NNE14.5 kmh NNE 25.0 mph40.2 kmh 29.73 in1006.8 mb 0.00 in0.0 mm 0.00 in0.0 mm 0.00 in0.0 mm
01:55 PM 54.6°F12.6°C 33.7°F0.9°C 45% 7.0 mph NW11.3 kmh NW 24.0 mph38.6 kmh 29.73 in1006.8 mb 0.00 in0.0 mm 0.00 in0.0 mm 0.00 in0.0 mm
02:00 PM 54.5°F12.5°C 33.6°F0.9°C 45% 17.0 mph NW27.4 kmh NW 24.0 mph38.6 kmh 29.73 in1006.8 mb 0.00 in0.0 mm 0.00 in0.0 mm 0.00 in0.0 mm
02:05 PM 54.3°F12.4°C 33.4°F0.8°C 45% 7.0 mph W11.3 kmh W 23.0 mph37.0 kmh 29.73 in1006.8 mb 0.00 in0.0 mm 0.00 in0.0 mm 0.00 in0.0 mm
02:10 PM 54.7°F12.6°C 33.8°F1.0°C 45% 9.0 mph NNW14.5 kmh NNW 23.0 mph37.0 kmh 29.74 in1007.1 mb 0.00 in0.0 mm 0.00 in0.0 mm 0.00 in0.0 mm
02:15 PM 54.2°F12.3°C 33.3°F0.7°C 45% 12.0 mph NW19.3 kmh NW 27.0 mph43.5 kmh 29.74 in1007.1 mb 0.00 in0.0 mm 0.00 in0.0 mm 0.00 in0.0 mm
02:20 PM 54.8°F12.7°C 33.9°F1.1°C 45% 6.0 mph NW9.7 kmh NW 27.0 mph43.5 kmh 29.73 in1006.8 mb 0.00 in0.0 mm 0.00 in0.0 mm 0.00 in0.0 mm
02:25 PM 55.4°F13.0°C 34.4°F1.3°C 45% 10.0 mph NW16.1 kmh NW 19.0 mph30.6 kmh 29.73 in1006.8 mb 0.00 in0.0 mm 0.00 in0.0 mm 0.00 in0.0 mm
02:30 PM 55.4°F13.0°C 33.3°F0.7°C 43% 7.0 mph N11.3 kmh N 20.0 mph32.2 kmh 29.74 in1007.1 mb 0.00 in0.0 mm 0.00 in0.0 mm 0.00 in0.0 mm
02:35 PM 55.3°F12.9°C 33.2°F0.7°C 43% 16.0 mph N25.7 kmh N 22.0 mph35.4 kmh 29.74 in1007.1 mb 0.00 in0.0 mm 0.00 in0.0 mm 0.00 in0.0 mm
02:40 PM 55.5°F13.1°C 33.4°F0.8°C 43% 7.0 mph NW11.3 kmh NW 22.0 mph35.4 kmh 29.73 in1006.8 mb 0.00 in0.0 mm 0.00 in0.0 mm 0.00 in0.0 mm
02:45 PM 55.9°F13.3°C 34.3°F1.3°C 44% 10.0 mph NW16.1 kmh NW 22.0 mph35.4 kmh 29.73 in1006.8 mb 0.00 in0.0 mm 0.00 in0.0 mm 0.00 in0.0 mm
02:50 PM 55.9°F13.3°C 31.9°F-0.1°C 40% 14.0 mph NNW22.5 kmh NNW 22.0 mph35.4 kmh 29.73 in1006.8 mb 0.00 in0.0 mm 0.00 in0.0 mm 0.00 in0.0 mm
02:55 PM 55.8°F13.2°C 30.6°F-0.8°C 38% 16.0 mph NNE25.7 kmh NNE 22.0 mph35.4 kmh 29.73 in1006.8 mb 0.00 in0.0 mm 0.00 in0.0 mm 0.00 in0.0 mm
03:00 PM 55.8°F13.2°C 31.8°F-0.1°C 40% 10.0 mph NW16.1 kmh NW 23.0 mph37.0 kmh 29.73 in1006.8 mb 0.00 in0.0 mm 0.00 in0.0 mm 0.00 in0.0 mm
03:05 PM 55.9°F13.3°C 33.1°F0.6°C 42% 14.0 mph NW22.5 kmh NW 24.0 mph38.6 kmh 29.73 in1006.8 mb 0.00 in0.0 mm 0.00 in0.0 mm 0.00 in0.0 mm
03:10 PM 55.9°F13.3°C 32.5°F0.3°C 41% 8.0 mph N12.9 kmh N 24.0 mph38.6 kmh 29.74 in1007.1 mb 0.00 in0.0 mm 0.00 in0.0 mm 0.00 in0.0 mm
03:15 PM 55.8°F13.2°C 31.8°F-0.1°C 40% 16.0 mph NNW25.7 kmh NNW 26.0 mph41.8 kmh 29.74 in1007.1 mb 0.00 in0.0 mm 0.00 in0.0 mm 0.00 in0.0 mm
03:20 PM 55.4°F13.0°C 31.5°F-0.3°C 40% 16.0 mph W25.7 kmh W 26.0 mph41.8 kmh 29.74 in1007.1 mb 0.00 in0.0 mm 0.00 in0.0 mm 0.00 in0.0 mm
03:25 PM 55.8°F13.2°C 32.5°F0.3°C 41% 22.0 mph NNE35.4 kmh NNE 23.0 mph37.0 kmh 29.74 in1007.1 mb 0.00 in0.0 mm 0.00 in0.0 mm 0.00 in0.0 mm
03:30 PM 55.8°F13.2°C 31.2°F-0.4°C 39% 8.0 mph NW12.9 kmh NW 27.0 mph43.5 kmh 29.74 in1007.1 mb 0.00 in0.0 mm 0.00 in0.0 mm 0.00 in0.0 mm
03:35 PM 56.0°F13.3°C 32.0°F0.0°C 40% 8.0 mph NW12.9 kmh NW 27.0 mph43.5 kmh 29.74 in1007.1 mb 0.00 in0.0 mm 0.00 in0.0 mm 0.00 in0.0 mm
03:40 PM 56.0°F13.3°C 31.4°F-0.3°C 39% 11.0 mph NW17.7 kmh NW 21.0 mph33.8 kmh 29.73 in1006.8 mb 0.00 in0.0 mm 0.00 in0.0 mm 0.00 in0.0 mm
03:45 PM 56.0°F13.3°C 31.4°F-0.3°C 39% 12.0 mph N19.3 kmh N 21.0 mph33.8 kmh 29.73 in1006.8 mb 0.00 in0.0 mm 0.00 in0.0 mm 0.00 in0.0 mm
03:50 PM 55.8°F13.2°C 30.6°F-0.8°C 38% 8.0 mph N12.9 kmh N 22.0 mph35.4 kmh 29.74 in1007.1 mb 0.00 in0.0 mm 0.00 in0.0 mm 0.00 in0.0 mm
03:55 PM 55.8°F13.2°C 30.6°F-0.8°C 38% 10.0 mph NNE16.1 kmh NNE 25.0 mph40.2 kmh 29.74 in1007.1 mb 0.00 in0.0 mm 0.00 in0.0 mm 0.00 in0.0 mm
04:00 PM 56.2°F13.4°C 30.9°F-0.6°C 38% 7.0 mph NNW11.3 kmh NNW 25.0 mph40.2 kmh 29.75 in1007.5 mb 0.00 in0.0 mm 0.00 in0.0 mm 0.00 in0.0 mm
04:05 PM 56.0°F13.3°C 30.8°F-0.7°C 38% 9.0 mph NW14.5 kmh NW 23.0 mph37.0 kmh 29.74 in1007.1 mb 0.00 in0.0 mm 0.00 in0.0 mm 0.00 in0.0 mm
04:10 PM 56.1°F13.4°C 31.5°F-0.3°C 39% 9.0 mph NNW14.5 kmh NNW 23.0 mph37.0 kmh 29.74 in1007.1 mb 0.00 in0.0 mm 0.00 in0.0 mm 0.00 in0.0 mm
04:15 PM 55.9°F13.3°C 30.0°F-1.1°C 37% 8.0 mph NW12.9 kmh NW 27.0 mph43.5 kmh 29.74 in1007.1 mb 0.00 in0.0 mm 0.00 in0.0 mm 0.00 in0.0 mm
04:20 PM 55.9°F13.3°C 31.3°F-0.4°C 39% 5.0 mph W8.0 kmh W 27.0 mph43.5 kmh 29.75 in1007.5 mb 0.00 in0.0 mm 0.00 in0.0 mm 0.00 in0.0 mm
04:25 PM 56.0°F13.3°C 31.4°F-0.3°C 39% 15.0 mph NW24.1 kmh NW 25.0 mph40.2 kmh 29.75 in1007.5 mb 0.00 in0.0 mm 0.00 in0.0 mm 0.00 in0.0 mm
04:30 PM 56.0°F13.3°C 31.4°F-0.3°C 39% 15.0 mph NNW24.1 kmh NNW 25.0 mph40.2 kmh 29.75 in1007.5 mb 0.00 in0.0 mm 0.00 in0.0 mm 0.00 in0.0 mm
04:35 PM 55.9°F13.3°C 30.7°F-0.7°C 38% 15.0 mph NW24.1 kmh NW 22.0 mph35.4 kmh 29.75 in1007.5 mb 0.00 in0.0 mm 0.00 in0.0 mm 0.00 in0.0 mm
04:40 PM 55.7°F13.2°C 31.1°F-0.5°C 39% 9.0 mph N14.5 kmh N 22.0 mph35.4 kmh 29.74 in1007.1 mb 0.00 in0.0 mm 0.00 in0.0 mm 0.00 in0.0 mm
04:45 PM 55.7°F13.2°C 30.5°F-0.8°C 38% 15.0 mph N24.1 kmh N 23.0 mph37.0 kmh 29.75 in1007.5 mb 0.00 in0.0 mm 0.00 in0.0 mm 0.00 in0.0 mm
04:50 PM 56.0°F13.3°C 31.4°F-0.3°C 39% 9.0 mph NNE14.5 kmh NNE 23.0 mph37.0 kmh 29.75 in1007.5 mb 0.00 in0.0 mm 0.00 in0.0 mm 0.00 in0.0 mm
04:55 PM 56.1°F13.4°C 30.8°F-0.7°C 38% 19.0 mph N30.6 kmh N 23.0 mph37.0 kmh 29.75 in1007.5 mb 0.00 in0.0 mm 0.00 in0.0 mm 0.00 in0.0 mm
05:00 PM 55.9°F13.3°C 30.7°F-0.7°C 38% 13.0 mph W20.9 kmh W 23.0 mph37.0 kmh 29.75 in1007.5 mb 0.00 in0.0 mm 0.00 in0.0 mm 0.00 in0.0 mm
05:05 PM 55.5°F13.1°C 31.0°F-0.6°C 39% 12.0 mph NNW19.3 kmh NNW 23.0 mph37.0 kmh 29.75 in1007.5 mb 0.00 in0.0 mm 0.00 in0.0 mm 0.00 in0.0 mm
05:10 PM 55.2°F12.9°C 30.7°F-0.7°C 39% 11.0 mph NW17.7 kmh NW 22.0 mph35.4 kmh 29.76 in1007.8 mb 0.00 in0.0 mm 0.00 in0.0 mm 0.00 in0.0 mm
05:15 PM 55.2°F12.9°C 31.3°F-0.4°C 40% 12.0 mph NW19.3 kmh NW 22.0 mph35.4 kmh 29.76 in1007.8 mb 0.00 in0.0 mm 0.00 in0.0 mm 0.00 in0.0 mm
05:20 PM 55.0°F12.8°C 31.1°F-0.5°C 40% 9.0 mph N14.5 kmh N 22.0 mph35.4 kmh 29.76 in1007.8 mb 0.00 in0.0 mm 0.00 in0.0 mm 0.00 in0.0 mm
05:25 PM 55.1°F12.8°C 31.2°F-0.4°C 40% 10.0 mph NNW16.1 kmh NNW 22.0 mph35.4 kmh 29.76 in1007.8 mb 0.00 in0.0 mm 0.00 in0.0 mm 0.00 in0.0 mm
05:30 PM 54.9°F12.7°C 31.0°F-0.6°C 40% 12.0 mph N19.3 kmh N 22.0 mph35.4 kmh 29.76 in1007.8 mb 0.00 in0.0 mm 0.00 in0.0 mm 0.00 in0.0 mm
05:35 PM 54.8°F12.7°C 30.9°F-0.6°C 40% 9.0 mph NW14.5 kmh NW 22.0 mph35.4 kmh 29.76 in1007.8 mb 0.00 in0.0 mm 0.00 in0.0 mm 0.00 in0.0 mm
05:40 PM 54.6°F12.6°C 30.1°F-1.1°C 39% 7.0 mph NW11.3 kmh NW 22.0 mph35.4 kmh 29.76 in1007.8 mb 0.00 in0.0 mm 0.00 in0.0 mm 0.00 in0.0 mm
05:45 PM 54.5°F12.5°C 30.7°F-0.7°C 40% 3.0 mph N4.8 kmh N 17.0 mph27.4 kmh 29.76 in1007.8 mb 0.00 in0.0 mm 0.00 in0.0 mm 0.00 in0.0 mm
05:50 PM 54.4°F12.4°C 31.2°F-0.4°C 41% 10.0 mph NW16.1 kmh NW 17.0 mph27.4 kmh 29.76 in1007.8 mb 0.00 in0.0 mm 0.00 in0.0 mm 0.00 in0.0 mm
05:55 PM 54.1°F12.3°C 32.1°F0.1°C 43% 4.0 mph NW6.4 kmh NW 16.0 mph25.7 kmh 29.77 in1008.1 mb 0.00 in0.0 mm 0.00 in0.0 mm 0.00 in0.0 mm
06:00 PM 53.9°F12.2°C 32.5°F0.3°C 44% 8.0 mph NNW12.9 kmh NNW 18.0 mph29.0 kmh 29.77 in1008.1 mb 0.00 in0.0 mm 0.00 in0.0 mm 0.00 in0.0 mm
06:05 PM 53.8°F12.1°C 32.4°F0.2°C 44% 6.0 mph N9.7 kmh N 18.0 mph29.0 kmh 29.77 in1008.1 mb 0.00 in0.0 mm 0.00 in0.0 mm 0.00 in0.0 mm
06:10 PM 53.6°F12.0°C 32.2°F0.1°C 44% 7.0 mph WNW11.3 kmh WNW 17.0 mph27.4 kmh 29.77 in1008.1 mb 0.00 in0.0 mm 0.00 in0.0 mm 0.00 in0.0 mm
06:15 PM 53.5°F11.9°C 32.1°F0.1°C 44% 6.0 mph N9.7 kmh N 17.0 mph27.4 kmh 29.77 in1008.1 mb 0.00 in0.0 mm 0.00 in0.0 mm 0.00 in0.0 mm
06:20 PM 53.3°F11.8°C 32.5°F0.3°C 45% 6.0 mph N9.7 kmh N 17.0 mph27.4 kmh 29.77 in1008.1 mb 0.00 in0.0 mm 0.00 in0.0 mm 0.00 in0.0 mm
06:25 PM 53.1°F11.7°C 32.9°F0.5°C 46% 10.0 mph NNW16.1 kmh NNW 17.0 mph27.4 kmh 29.77 in1008.1 mb 0.00 in0.0 mm 0.00 in0.0 mm 0.00 in0.0 mm
06:30 PM 52.9°F11.6°C 33.2°F0.7°C 47% 4.0 mph NNE6.4 kmh NNE 15.0 mph24.1 kmh 29.77 in1008.1 mb 0.00 in0.0 mm 0.00 in0.0 mm 0.00 in0.0 mm
06:35 PM 52.6°F11.4°C 32.9°F0.5°C 47% 4.0 mph NNW6.4 kmh NNW 13.0 mph20.9 kmh 29.77 in1008.1 mb 0.00 in0.0 mm 0.00 in0.0 mm 0.00 in0.0 mm
06:40 PM 52.3°F11.3°C 32.1°F0.1°C 46% 3.0 mph NW4.8 kmh NW 9.0 mph14.5 kmh 29.78 in1008.5 mb 0.00 in0.0 mm 0.00 in0.0 mm 0.00 in0.0 mm
06:45 PM 52.0°F11.1°C 32.4°F0.2°C 47% 2.0 mph N3.2 kmh N 9.0 mph14.5 kmh 29.78 in1008.5 mb 0.00 in0.0 mm 0.00 in0.0 mm 0.00 in0.0 mm
06:50 PM 51.7°F10.9°C 33.2°F0.7°C 49% 7.0 mph N11.3 kmh N 10.0 mph16.1 kmh 29.78 in1008.5 mb 0.00 in0.0 mm 0.00 in0.0 mm 0.00 in0.0 mm
06:55 PM 51.5°F10.8°C 33.5°F0.8°C 50% 6.0 mph NNW9.7 kmh NNW 10.0 mph16.1 kmh 29.78 in1008.5 mb 0.00 in0.0 mm 0.00 in0.0 mm 0.00 in0.0 mm
07:00 PM 51.1°F10.6°C 33.6°F0.9°C 51% 3.0 mph NW4.8 kmh NW 9.0 mph14.5 kmh 29.78 in1008.5 mb 0.00 in0.0 mm 0.00 in0.0 mm 0.00 in0.0 mm
07:05 PM 50.7°F10.4°C 33.2°F0.7°C 51% 4.0 mph N6.4 kmh N 10.0 mph16.1 kmh 29.79 in1008.8 mb 0.00 in0.0 mm 0.00 in0.0 mm 0.00 in0.0 mm
07:10 PM 50.7°F10.4°C 32.7°F0.4°C 50% 6.0 mph NW9.7 kmh NW 11.0 mph17.7 kmh 29.79 in1008.8 mb 0.00 in0.0 mm 0.00 in0.0 mm 0.00 in0.0 mm
07:15 PM 50.5°F10.3°C 32.6°F0.3°C 50% 4.0 mph NNW6.4 kmh NNW 11.0 mph17.7 kmh 29.80 in1009.1 mb 0.00 in0.0 mm 0.00 in0.0 mm 0.00 in0.0 mm
07:20 PM 50.1°F10.1°C 32.2°F0.1°C 50% 3.0 mph NNW4.8 kmh NNW 14.0 mph22.5 kmh 29.80 in1009.1 mb 0.00 in0.0 mm 0.00 in0.0 mm 0.00 in0.0 mm
07:25 PM 49.7°F9.8°C 32.3°F0.2°C 51% 3.0 mph NNW4.8 kmh NNW 14.0 mph22.5 kmh 29.80 in1009.1 mb 0.00 in0.0 mm 0.00 in0.0 mm 0.00 in0.0 mm
07:30 PM 49.4°F9.7°C 32.5°F0.3°C 52% 3.0 mph N4.8 kmh N 9.0 mph14.5 kmh 29.80 in1009.1 mb 0.00 in0.0 mm 0.00 in0.0 mm 0.00 in0.0 mm
07:35 PM 49.2°F9.6°C 32.8°F0.4°C 53% 4.0 mph NNW6.4 kmh NNW 8.0 mph12.9 kmh 29.81 in1009.5 mb 0.00 in0.0 mm 0.00 in0.0 mm 0.00 in0.0 mm
07:40 PM 48.8°F9.3°C 32.4°F0.2°C 53% 4.0 mph N6.4 kmh N 8.0 mph12.9 kmh 29.81 in1009.5 mb 0.00 in0.0 mm 0.00 in0.0 mm 0.00 in0.0 mm
07:45 PM 48.5°F9.2°C 32.6°F0.3°C 54% 3.0 mph N4.8 kmh N 9.0 mph14.5 kmh 29.81 in1009.5 mb 0.00 in0.0 mm 0.00 in0.0 mm 0.00 in0.0 mm
07:50 PM 48.3°F9.1°C 32.4°F0.2°C 54% 3.0 mph NW4.8 kmh NW 10.0 mph16.1 kmh 29.82 in1009.8 mb 0.00 in0.0 mm 0.00 in0.0 mm 0.00 in0.0 mm
07:55 PM 48.2°F9.0°C 32.8°F0.4°C 55% 4.0 mph N6.4 kmh N 10.0 mph16.1 kmh 29.82 in1009.8 mb 0.00 in0.0 mm 0.00 in0.0 mm 0.00 in0.0 mm
08:01 PM 48.1°F8.9°C 32.7°F0.4°C 55% 3.0 mph N4.8 kmh N 8.0 mph12.9 kmh 29.82 in1009.8 mb 0.00 in0.0 mm 0.00 in0.0 mm 0.00 in0.0 mm
08:05 PM 48.0°F8.9°C 31.7°F-0.2°C 53% 8.0 mph NNW12.9 kmh NNW 9.0 mph14.5 kmh 29.82 in1009.8 mb 0.00 in0.0 mm 0.00 in0.0 mm 0.00 in0.0 mm
08:10 PM 48.0°F8.9°C 30.7°F-0.7°C 51% 7.0 mph NNW11.3 kmh NNW 13.0 mph20.9 kmh 29.83 in1010.2 mb 0.00 in0.0 mm 0.00 in0.0 mm 0.00 in0.0 mm
08:15 PM 48.5°F9.2°C 29.2°F-1.6°C 47% 8.0 mph N12.9 kmh N 16.0 mph25.7 kmh 29.83 in1010.2 mb 0.00 in0.0 mm 0.00 in0.0 mm 0.00 in0.0 mm
08:20 PM 48.8°F9.3°C 28.9°F-1.7°C 46% 7.0 mph N11.3 kmh N 16.0 mph25.7 kmh 29.83 in1010.2 mb 0.00 in0.0 mm 0.00 in0.0 mm 0.00 in0.0 mm
08:25 PM 48.6°F9.2°C 29.3°F-1.5°C 47% Calm Calm 12.0 mph19.3 kmh 29.83 in1010.2 mb 0.00 in0.0 mm 0.00 in0.0 mm 0.00 in0.0 mm
08:30 PM 48.1°F8.9°C 29.3°F-1.5°C 48% 7.0 mph NW11.3 kmh NW 10.0 mph16.1 kmh 29.84 in1010.5 mb 0.00 in0.0 mm 0.00 in0.0 mm 0.00 in0.0 mm
08:35 PM 47.6°F8.7°C 31.8°F-0.1°C 54% 4.0 mph NNW6.4 kmh NNW 8.0 mph12.9 kmh 29.84 in1010.5 mb 0.00 in0.0 mm 0.00 in0.0 mm 0.00 in0.0 mm
08:40 PM 47.0°F8.3°C 32.6°F0.3°C 57% 6.0 mph N9.7 kmh N 8.0 mph12.9 kmh 29.84 in1010.5 mb 0.00 in0.0 mm 0.00 in0.0 mm 0.00 in0.0 mm
08:45 PM 46.7°F8.2°C 31.8°F-0.1°C 56% 7.0 mph NNW11.3 kmh NNW 9.0 mph14.5 kmh 29.84 in1010.5 mb 0.00 in0.0 mm 0.00 in0.0 mm 0.00 in0.0 mm
08:50 PM 46.7°F8.2°C 31.4°F-0.3°C 55% 6.0 mph NW9.7 kmh NW 14.0 mph22.5 kmh 29.85 in1010.8 mb 0.00 in0.0 mm 0.00 in0.0 mm 0.00 in0.0 mm
08:55 PM 47.4°F8.6°C 29.2°F-1.6°C 49% 7.0 mph N11.3 kmh N 14.0 mph22.5 kmh 29.85 in1010.8 mb 0.00 in0.0 mm 0.00 in0.0 mm 0.00 in0.0 mm
09:00 PM 47.4°F8.6°C 29.2°F-1.6°C 49% 4.0 mph NW6.4 kmh NW 14.0 mph22.5 kmh 29.85 in1010.8 mb 0.00 in0.0 mm 0.00 in0.0 mm 0.00 in0.0 mm
09:05 PM 47.4°F8.6°C 28.7°F-1.8°C 48% 10.0 mph N16.1 kmh N 12.0 mph19.3 kmh 29.86 in1011.2 mb 0.00 in0.0 mm 0.00 in0.0 mm 0.00 in0.0 mm
09:10 PM 47.3°F8.5°C 29.1°F-1.6°C 49% 3.0 mph NNW4.8 kmh NNW 13.0 mph20.9 kmh 29.86 in1011.2 mb 0.00 in0.0 mm 0.00 in0.0 mm 0.00 in0.0 mm
09:15 PM 47.2°F8.4°C 29.0°F-1.7°C 49% 7.0 mph NNW11.3 kmh NNW 13.0 mph20.9 kmh 29.86 in1011.2 mb 0.00 in0.0 mm 0.00 in0.0 mm 0.00 in0.0 mm
09:20 PM 47.0°F8.3°C 28.8°F-1.8°C 49% 4.0 mph N6.4 kmh N 10.0 mph16.1 kmh 29.86 in1011.2 mb 0.00 in0.0 mm 0.00 in0.0 mm 0.00 in0.0 mm
09:25 PM 46.5°F8.1°C 28.9°F-1.7°C 50% 3.0 mph NNW4.8 kmh NNW 9.0 mph14.5 kmh 29.86 in1011.2 mb 0.00 in0.0 mm 0.00 in0.0 mm 0.00 in0.0 mm
09:30 PM 46.2°F7.9°C 28.6°F-1.9°C 50% 3.0 mph N4.8 kmh N 9.0 mph14.5 kmh 29.87 in1011.5 mb 0.00 in0.0 mm 0.00 in0.0 mm 0.00 in0.0 mm
09:35 PM 46.0°F7.8°C 29.4°F-1.4°C 52% 3.0 mph NNW4.8 kmh NNW 12.0 mph19.3 kmh 29.87 in1011.5 mb 0.00 in0.0 mm 0.00 in0.0 mm 0.00 in0.0 mm
09:40 PM 45.8°F7.7°C 31.4°F-0.3°C 57% 8.0 mph N12.9 kmh N 13.0 mph20.9 kmh 29.88 in1011.9 mb 0.00 in0.0 mm 0.00 in0.0 mm 0.00 in0.0 mm
09:45 PM 45.7°F7.6°C 31.3°F-0.4°C 57% 7.0 mph NNE11.3 kmh NNE 14.0 mph22.5 kmh 29.88 in1011.9 mb 0.00 in0.0 mm 0.00 in0.0 mm 0.00 in0.0 mm
09:50 PM 45.9°F7.7°C 30.7°F-0.7°C 55% 7.0 mph N11.3 kmh N 14.0 mph22.5 kmh 29.88 in1011.9 mb 0.00 in0.0 mm 0.00 in0.0 mm 0.00 in0.0 mm
09:55 PM 46.0°F7.8°C 30.3°F-0.9°C 54% 5.0 mph NNW8.0 kmh NNW 13.0 mph20.9 kmh 29.89 in1012.2 mb 0.00 in0.0 mm 0.00 in0.0 mm 0.00 in0.0 mm
10:00 PM 46.0°F7.8°C 30.3°F-0.9°C 54% 3.0 mph N4.8 kmh N 12.0 mph19.3 kmh 29.89 in1012.2 mb 0.00 in0.0 mm 0.00 in0.0 mm 0.00 in0.0 mm
10:05 PM 45.7°F7.6°C 30.0°F-1.1°C 54% 8.0 mph NNW12.9 kmh NNW 11.0 mph17.7 kmh 29.89 in1012.2 mb 0.00 in0.0 mm 0.00 in0.0 mm 0.00 in0.0 mm
10:10 PM 45.5°F7.5°C 30.3°F-0.9°C 55% 4.0 mph N6.4 kmh N 11.0 mph17.7 kmh 29.89 in1012.2 mb 0.00 in0.0 mm 0.00 in0.0 mm 0.00 in0.0 mm
10:15 PM 45.3°F7.4°C 30.1°F-1.1°C 55% 8.0 mph N12.9 kmh N 11.0 mph17.7 kmh 29.89 in1012.2 mb 0.00 in0.0 mm 0.00 in0.0 mm 0.00 in0.0 mm
10:20 PM 45.4°F7.4°C 29.7°F-1.3°C 54% 7.0 mph N11.3 kmh N 14.0 mph22.5 kmh 29.89 in1012.2 mb 0.00 in0.0 mm 0.00 in0.0 mm 0.00 in0.0 mm
10:25 PM 45.5°F7.5°C 28.9°F-1.7°C 52% 5.0 mph NE8.0 kmh NE 14.0 mph22.5 kmh 29.89 in1012.2 mb 0.00 in0.0 mm 0.00 in0.0 mm 0.00 in0.0 mm
10:30 PM 45.8°F7.7°C 28.7°F-1.8°C 51% 7.0 mph NE11.3 kmh NE 12.0 mph19.3 kmh 29.89 in1012.2 mb 0.00 in0.0 mm 0.00 in0.0 mm 0.00 in0.0 mm
10:35 PM 46.0°F7.8°C 28.4°F-2.0°C 50% 4.0 mph NNW6.4 kmh NNW 14.0 mph22.5 kmh 29.90 in1012.5 mb 0.00 in0.0 mm 0.00 in0.0 mm 0.00 in0.0 mm
10:41 PM 45.8°F7.7°C 28.7°F-1.8°C 51% 3.0 mph N4.8 kmh N 14.0 mph22.5 kmh 29.90 in1012.5 mb 0.00 in0.0 mm 0.00 in0.0 mm 0.00 in0.0 mm
10:45 PM 45.4°F7.4°C 29.3°F-1.5°C 53% 3.0 mph NNW4.8 kmh NNW 11.0 mph17.7 kmh 29.90 in1012.5 mb 0.00 in0.0 mm 0.00 in0.0 mm 0.00 in0.0 mm
10:50 PM 45.0°F7.2°C 28.9°F-1.7°C 53% 4.0 mph NW6.4 kmh NW 14.0 mph22.5 kmh 29.90 in1012.5 mb 0.00 in0.0 mm 0.00 in0.0 mm 0.00 in0.0 mm
10:55 PM 45.0°F7.2°C 28.4°F-2.0°C 52% 6.0 mph NNW9.7 kmh NNW 14.0 mph22.5 kmh 29.91 in1012.9 mb 0.00 in0.0 mm 0.00 in0.0 mm 0.00 in0.0 mm
11:00 PM 45.5°F7.5°C 28.0°F-2.2°C 50% 7.0 mph NW11.3 kmh NW 14.0 mph22.5 kmh 29.91 in1012.9 mb 0.00 in0.0 mm 0.00 in0.0 mm 0.00 in0.0 mm
11:05 PM 45.6°F7.6°C 28.5°F-1.9°C 51% 2.0 mph NW3.2 kmh NW 14.0 mph22.5 kmh 29.92 in1013.2 mb 0.00 in0.0 mm 0.00 in0.0 mm 0.00 in0.0 mm
11:10 PM 45.0°F7.2°C 28.9°F-1.7°C 53% 7.0 mph NNE11.3 kmh NNE 14.0 mph22.5 kmh 29.92 in1013.2 mb 0.00 in0.0 mm 0.00 in0.0 mm 0.00 in0.0 mm
11:15 PM 44.4°F6.9°C 28.8°F-1.8°C 54% 6.0 mph WNW9.7 kmh WNW 11.0 mph17.7 kmh 29.93 in1013.5 mb 0.00 in0.0 mm 0.00 in0.0 mm 0.00 in0.0 mm
11:20 PM 43.9°F6.6°C 29.2°F-1.6°C 56% 3.0 mph N4.8 kmh N 15.0 mph24.1 kmh 29.93 in1013.5 mb 0.00 in0.0 mm 0.00 in0.0 mm 0.00 in0.0 mm
11:25 PM 43.4°F6.3°C 28.8°F-1.8°C 56% 8.0 mph NW12.9 kmh NW 15.0 mph24.1 kmh 29.94 in1013.9 mb 0.00 in0.0 mm 0.00 in0.0 mm 0.00 in0.0 mm
11:30 PM 43.3°F6.3°C 28.7°F-1.8°C 56% 7.0 mph NNW11.3 kmh NNW 16.0 mph25.7 kmh 29.93 in1013.5 mb 0.00 in0.0 mm 0.00 in0.0 mm 0.00 in0.0 mm
11:35 PM 43.4°F6.3°C 28.3°F-2.1°C 55% 11.0 mph NW17.7 kmh NW 16.0 mph25.7 kmh 29.94 in1013.9 mb 0.00 in0.0 mm 0.00 in0.0 mm 0.00 in0.0 mm
11:40 PM 43.6°F6.4°C 28.5°F-1.9°C 55% 8.0 mph WNW12.9 kmh WNW 15.0 mph24.1 kmh 29.94 in1013.9 mb 0.00 in0.0 mm 0.00 in0.0 mm 0.00 in0.0 mm
11:45 PM 43.7°F6.5°C 28.2°F-2.1°C 54% 6.0 mph N9.7 kmh N 16.0 mph25.7 kmh 29.94 in1013.9 mb 0.00 in0.0 mm 0.00 in0.0 mm 0.00 in0.0 mm
11:50 PM 43.7°F6.5°C 28.2°F-2.1°C 54% 5.0 mph NNW8.0 kmh NNW 16.0 mph25.7 kmh 29.94 in1013.9 mb 0.00 in0.0 mm 0.00 in0.0 mm 0.00 in0.0 mm
11:55 PM 43.7°F6.5°C 28.2°F-2.1°C 54% 5.0 mph WNW8.0 kmh WNW 16.0 mph25.7 kmh 29.94 in1013.9 mb 0.00 in0.0 mm 0.00 in0.0 mm 0.00 in0.0 mm